Time;durP1;ratioP1;P1;durP2;ratioP2;P2;SDS_P1;SDS_P2;PMS_P1;PMS_P2;Temp;Humidity;BMP_temperature;BMP_pressure;BME280_temperature;BME280_humidity;BME280_pressure;Samples;Min_cycle;Max_cycle;Signal;HPM_P1;HPM_P2
2023/09/28 00:00:39;;;;;;;10.25;8.98;;;19.10;90.50;;;;;;6103571;23;20203;-83
2023/09/28 00:03:07;;;;;;;10.85;8.85;;;19.10;90.50;;;;;;6125985;23;20208;-81
2023/09/28 00:05:34;;;;;;;10.88;9.35;;;19.10;90.50;;;;;;6126035;23;20136;-84
2023/09/28 00:08:00;;;;;;;12.95;9.40;;;19.10;90.50;;;;;;6125962;23;20132;-82
2023/09/28 00:10:26;;;;;;;11.80;9.20;;;19.10;90.50;;;;;;6101863;23;20540;-82
2023/09/28 00:12:53;;;;;;;9.85;8.73;;;19.20;90.50;;;;;;6151738;22;20575;-83
2023/09/28 00:15:19;;;;;;;10.57;8.70;;;19.10;90.50;;;;;;6125491;23;20135;-83
2023/09/28 00:17:47;;;;;;;10.45;8.98;;;19.10;90.50;;;;;;6125529;23;20136;-82
2023/09/28 00:20:17;;;;;;;10.57;9.00;;;19.10;90.50;;;;;;6102196;23;20132;-82
2023/09/28 00:22:43;;;;;;;11.35;8.95;;;19.10;90.40;;;;;;6151484;22;20466;-83
2023/09/28 00:25:11;;;;;;;11.93;8.85;;;19.10;90.50;;;;;;6151814;23;20136;-83
2023/09/28 00:27:39;;;;;;;10.88;9.18;;;19.10;90.50;;;;;;6102328;23;20173;-83
2023/09/28 00:30:09;;;;;;;10.52;8.77;;;19.00;90.50;;;;;;6102272;23;20519;-82
2023/09/28 00:32:35;;;;;;;11.20;9.07;;;19.10;90.50;;;;;;6151414;22;20440;-83
2023/09/28 00:35:04;;;;;;;11.65;9.15;;;19.10;90.50;;;;;;6125466;23;20186;-83
2023/09/28 00:37:30;;;;;;;11.40;8.80;;;19.10;90.50;;;;;;6125636;23;20128;-83
2023/09/28 00:39:56;;;;;;;10.63;9.05;;;19.10;90.50;;;;;;6101433;23;20151;-83
2023/09/28 00:42:22;;;;;;;12.05;8.70;;;19.10;90.50;;;;;;6151303;22;20136;-82
2023/09/28 00:44:49;;;;;;;11.20;9.18;;;19.10;90.50;;;;;;6126163;23;20190;-82
2023/09/28 00:47:15;;;;;;;9.88;8.63;;;19.10;90.50;;;;;;6102230;23;20198;-82
2023/09/28 00:49:43;;;;;;;10.38;8.25;;;19.10;90.50;;;;;;6126929;23;20226;-82
2023/09/28 00:52:10;;;;;;;11.32;8.75;;;19.10;90.50;;;;;;6121466;22;20218;-83
2023/09/28 00:54:35;;;;;;;10.40;8.88;;;19.10;90.50;;;;;;6121756;23;20187;-83
2023/09/28 00:57:01;;;;;;;11.32;9.10;;;19.10;90.50;;;;;;6121628;23;20259;-82
2023/09/28 00:59:27;;;;;;;13.77;9.20;;;19.10;90.50;;;;;;6121602;23;20133;-83
2023/09/28 01:01:55;;;;;;;10.80;8.40;;;19.10;90.40;;;;;;6121652;23;20140;-83
2023/09/28 01:04:22;;;;;;;9.82;8.48;;;19.20;90.50;;;;;;6097508;23;20152;-84
2023/09/28 01:06:48;;;;;;;11.05;9.02;;;19.10;90.50;;;;;;6123042;23;20167;-83
2023/09/28 01:09:15;;;;;;;10.82;9.00;;;19.10;90.50;;;;;;6097421;23;20160;-83
2023/09/28 01:11:42;;;;;;;11.60;9.07;;;19.10;90.50;;;;;;6097391;23;20163;-82
2023/09/28 01:14:07;;;;;;;10.90;8.93;;;19.10;90.50;;;;;;6097309;23;20152;-84
2023/09/28 01:16:34;;;;;;;9.95;8.52;;;19.10;90.50;;;;;;6097475;23;20171;-83
2023/09/28 01:19:00;;;;;;;11.77;9.32;;;19.10;90.50;;;;;;6123062;23;20163;-84
2023/09/28 01:21:25;;;;;;;10.65;9.25;;;19.10;90.40;;;;;;6122967;23;20215;-84
2023/09/28 01:23:52;;;;;;;10.23;8.88;;;19.10;90.50;;;;;;6121483;23;20609;-83
2023/09/28 01:26:18;;;;;;;10.40;8.73;;;19.10;90.40;;;;;;6122982;23;20139;-82
2023/09/28 01:28:44;;;;;;;11.05;8.65;;;19.10;90.50;;;;;;6121513;23;20140;-83
2023/09/28 01:31:10;;;;;;;10.52;9.32;;;19.10;90.50;;;;;;6122073;23;20168;-83
2023/09/28 01:33:37;;;;;;;10.98;8.68;;;19.10;90.50;;;;;;6122203;23;20136;-84
2023/09/28 01:36:04;;;;;;;10.65;8.80;;;19.10;90.50;;;;;;6097091;23;20206;-82
2023/09/28 01:38:38;;;;;;;10.55;9.25;;;19.10;90.50;;;;;;6123255;23;20133;-83
2023/09/28 01:41:05;;;;;;;11.45;8.68;;;19.10;90.60;;;;;;6122222;23;20136;-82
2023/09/28 01:43:31;;;;;;;11.52;9.25;;;19.00;90.50;;;;;;6097054;23;20152;-82
2023/09/28 01:45:57;;;;;;;11.45;9.23;;;19.10;90.60;;;;;;6122071;23;20152;-82
2023/09/28 01:48:23;;;;;;;10.35;8.75;;;19.10;90.60;;;;;;6097144;23;20136;-82
2023/09/28 01:50:48;;;;;;;10.15;8.57;;;19.10;90.60;;;;;;6122470;22;20144;-83
2023/09/28 01:53:14;;;;;;;10.60;9.00;;;19.00;90.50;;;;;;6126869;23;20139;-82
2023/09/28 01:55:40;;;;;;;10.38;8.40;;;19.10;90.60;;;;;;6101684;23;20179;-83
2023/09/28 01:58:07;;;;;;;11.13;9.48;;;19.00;90.50;;;;;;6152145;23;20640;-83
2023/09/28 02:00:35;;;;;;;10.95;8.85;;;19.00;90.50;;;;;;6102659;23;20147;-84
2023/09/28 02:03:03;;;;;;;10.73;8.75;;;19.10;90.60;;;;;;6126367;23;20210;-83
2023/09/28 02:05:32;;;;;;;11.43;8.63;;;19.00;90.50;;;;;;6126720;23;20218;-82
2023/09/28 02:07:59;;;;;;;10.82;8.52;;;19.10;90.50;;;;;;6126999;23;20135;-83
2023/09/28 02:10:25;;;;;;;11.52;9.18;;;19.10;90.60;;;;;;6126567;23;20143;-83
2023/09/28 02:12:51;;;;;;;12.05;8.85;;;19.10;90.60;;;;;;6126837;23;20147;-84
2023/09/28 02:15:17;;;;;;;11.82;9.02;;;19.10;90.60;;;;;;6152118;22;20523;-83
2023/09/28 02:17:44;;;;;;;10.00;8.57;;;19.00;90.50;;;;;;6126293;23;20151;-83
2023/09/28 02:20:11;;;;;;;10.35;8.77;;;19.00;90.50;;;;;;6126595;23;20139;-83
2023/09/28 02:22:43;;;;;;;9.93;8.23;;;19.00;90.50;;;;;;6126262;23;20132;-83
2023/09/28 02:25:10;;;;;;;9.93;8.30;;;19.10;90.50;;;;;;6103173;23;20525;-83
2023/09/28 02:27:36;;;;;;;11.52;8.68;;;19.10;90.50;;;;;;6103166;23;20143;-83
2023/09/28 02:30:04;;;;;;;10.38;8.73;;;19.10;90.50;;;;;;6126288;23;20147;-82
2023/09/28 02:32:31;;;;;;;10.48;8.93;;;19.00;90.50;;;;;;6126229;23;20147;-83
2023/09/28 02:34:58;;;;;;;10.18;8.30;;;19.00;90.50;;;;;;6101835;23;20196;-82
2023/09/28 02:37:24;;;;;;;12.68;9.35;;;19.10;90.90;;;;;;6126224;23;20184;-84
2023/09/28 02:39:50;;;;;;;11.60;8.93;;;19.00;90.50;;;;;;6126121;23;20179;-82
2023/09/28 02:42:16;;;;;;;10.77;8.85;;;19.00;90.50;;;;;;6126109;23;20183;-83
2023/09/28 02:44:42;;;;;;;10.40;8.48;;;19.00;90.50;;;;;;6101726;23;20147;-82
2023/09/28 02:47:09;;;;;;;10.25;8.52;;;19.00;90.50;;;;;;6126490;23;20209;-83
2023/09/28 02:49:35;;;;;;;9.95;8.70;;;19.00;90.50;;;;;;6106006;23;20155;-82
2023/09/28 02:52:02;;;;;;;11.80;9.10;;;19.00;90.50;;;;;;6130382;23;20266;-82
2023/09/28 02:54:29;;;;;;;10.13;8.77;;;18.90;90.50;;;;;;6155972;22;20152;-83
2023/09/28 02:56:56;;;;;;;9.75;8.32;;;19.00;90.60;;;;;;6129527;23;20281;-82
2023/09/28 02:59:27;;;;;;;10.07;8.85;;;19.00;90.60;;;;;;6102240;23;20135;-83
2023/09/28 03:01:58;;;;;;;11.80;9.05;;;19.10;90.60;;;;;;6078256;23;20148;-82
2023/09/28 03:04:29;;;;;;;10.43;8.52;;;19.00;90.60;;;;;;6178208;23;20156;-83
2023/09/28 03:06:59;;;;;;;9.90;8.90;;;19.00;90.60;;;;;;6078617;23;20155;-82
2023/09/28 03:09:29;;;;;;;10.30;8.52;;;19.00;90.50;;;;;;6202904;23;20187;-83
2023/09/28 03:11:57;;;;;;;10.85;9.23;;;19.00;90.60;;;;;;6203877;23;20201;-82
2023/09/28 03:14:26;;;;;;;9.43;8.40;;;19.00;90.60;;;;;;6077381;23;20234;-83
2023/09/28 03:16:54;;;;;;;10.02;8.48;;;19.00;90.50;;;;;;6102850;23;20194;-81
2023/09/28 03:19:23;;;;;;;9.55;8.55;;;19.00;90.50;;;;;;6077279;23;20155;-81
2023/09/28 03:21:51;;;;;;;10.85;8.80;;;19.00;90.50;;;;;;6077354;23;20598;-81
2023/09/28 03:24:17;;;;;;;10.30;8.68;;;19.00;90.60;;;;;;6177958;23;20152;-82
2023/09/28 03:26:44;;;;;;;9.75;8.52;;;19.00;90.60;;;;;;6101600;23;20140;-83
2023/09/28 03:29:12;;;;;;;10.77;8.93;;;19.00;90.60;;;;;;6177887;23;20156;-82
2023/09/28 03:31:38;;;;;;;10.98;8.85;;;18.90;90.60;;;;;;6177866;23;20241;-83
2023/09/28 03:34:04;;;;;;;10.00;8.77;;;19.00;90.60;;;;;;6102078;23;20174;-83
2023/09/28 03:36:33;;;;;;;11.43;8.68;;;19.00;90.60;;;;;;6125787;23;20527;-82
2023/09/28 03:39:00;;;;;;;9.18;8.18;;;19.00;90.60;;;;;;6126273;23;20181;-83
2023/09/28 03:41:26;;;;;;;9.77;8.43;;;18.90;90.60;;;;;;6152318;22;20132;-83
2023/09/28 03:43:53;;;;;;;10.20;8.75;;;19.00;90.70;;;;;;6125991;23;20701;-82
2023/09/28 03:46:19;;;;;;;9.75;8.40;;;19.00;90.60;;;;;;6125987;23;20139;-82
2023/09/28 03:48:45;;;;;;;9.48;8.10;;;19.00;90.60;;;;;;6125998;23;20140;-82
2023/09/28 03:51:11;;;;;;;10.02;8.60;;;19.00;90.60;;;;;;6120893;22;20274;-83
2023/09/28 03:53:40;;;;;;;10.90;8.65;;;18.90;90.50;;;;;;6121147;23;20172;-83
2023/09/28 03:56:07;;;;;;;10.38;8.80;;;19.00;90.50;;;;;;6122287;23;20214;-83
2023/09/28 03:58:34;;;;;;;9.88;8.40;;;18.90;90.50;;;;;;6120832;23;20143;-83
2023/09/28 04:01:03;;;;;;;10.35;8.63;;;18.90;90.50;;;;;;6120803;23;20152;-83
2023/09/28 04:03:29;;;;;;;9.43;8.18;;;19.00;90.50;;;;;;6073743;23;20149;-82
2023/09/28 04:05:55;;;;;;;8.95;8.05;;;18.90;90.40;;;;;;6096458;23;20159;-82
2023/09/28 04:08:21;;;;;;;10.07;8.48;;;19.00;90.50;;;;;;6120606;23;20156;-82
2023/09/28 04:10:46;;;;;;;10.95;8.73;;;19.00;90.50;;;;;;6122134;23;20136;-83
2023/09/28 04:13:22;;;;;;;10.48;8.77;;;19.00;90.50;;;;;;6048737;23;20178;-83
2023/09/28 04:15:48;;;;;;;9.77;8.25;;;19.00;90.50;;;;;;6095735;23;20184;-82
2023/09/28 04:18:14;;;;;;;9.82;8.27;;;18.90;90.40;;;;;;6072958;23;20152;-83
2023/09/28 04:20:43;;;;;;;9.90;8.77;;;18.90;90.30;;;;;;6120625;23;20136;-83
2023/09/28 04:23:12;;;;;;;9.60;8.25;;;19.00;90.40;;;;;;6197569;23;20179;-82
2023/09/28 04:25:40;;;;;;;10.52;8.55;;;19.00;90.40;;;;;;6096447;23;20167;-83
2023/09/28 04:28:08;;;;;;;11.10;9.00;;;18.90;90.40;;;;;;6071439;23;20156;-82
2023/09/28 04:30:36;;;;;;;9.77;8.35;;;19.00;90.50;;;;;;6197825;23;20162;-82
2023/09/28 04:33:04;;;;;;;9.88;8.45;;;18.90;90.50;;;;;;6072110;23;20231;-82
2023/09/28 04:35:33;;;;;;;10.05;8.52;;;19.00;90.90;;;;;;6221621;23;20675;-83
2023/09/28 04:38:02;;;;;;;11.18;8.15;;;18.90;90.50;;;;;;6197588;23;20194;-83
2023/09/28 04:40:30;;;;;;;10.05;8.55;;;18.90;90.50;;;;;;6072055;23;20156;-83
2023/09/28 04:42:55;;;;;;;9.60;8.25;;;18.90;90.50;;;;;;6222974;23;20163;-83
2023/09/28 04:45:22;;;;;;;10.80;8.30;;;18.90;90.50;;;;;;6120465;23;20128;-83
2023/09/28 04:47:49;;;;;;;9.80;8.40;;;19.00;90.80;;;;;;6047489;23;20156;-82
2023/09/28 04:50:16;;;;;;;10.40;8.35;;;19.00;90.50;;;;;;6071558;23;20156;-83
2023/09/28 04:52:43;;;;;;;9.82;8.40;;;18.90;90.50;;;;;;6197329;23;20210;-83
2023/09/28 04:55:10;;;;;;;9.73;8.48;;;18.90;90.60;;;;;;6122051;23;20571;-84
2023/09/28 04:57:36;;;;;;;9.73;8.43;;;18.90;90.60;;;;;;6122048;23;20144;-82
2023/09/28 05:00:06;;;;;;;10.48;8.75;;;18.90;90.50;;;;;;6095818;23;20152;-83
2023/09/28 05:02:32;;;;;;;9.98;8.68;;;18.90;90.60;;;;;;6097407;23;20594;-83
2023/09/28 05:04:58;;;;;;;9.80;8.23;;;18.80;90.50;;;;;;6071757;23;20152;-82
2023/09/28 05:07:24;;;;;;;8.77;7.88;;;18.90;90.50;;;;;;6120125;23;20140;-82
2023/09/28 05:09:50;;;;;;;9.60;8.25;;;18.90;90.50;;;;;;6096184;23;20156;-82
2023/09/28 05:12:16;;;;;;;10.65;8.55;;;18.80;90.40;;;;;;6121529;23;20510;-82
2023/09/28 05:14:42;;;;;;;9.88;8.27;;;18.90;90.50;;;;;;6095754;23;20472;-83
2023/09/28 05:17:08;;;;;;;10.75;8.23;;;18.90;90.50;;;;;;6121601;23;20251;-82
2023/09/28 05:19:34;;;;;;;9.88;8.40;;;18.90;90.50;;;;;;6121704;23;20143;-82
2023/09/28 05:22:00;;;;;;;9.48;8.40;;;18.90;90.40;;;;;;6120221;23;20132;-82
2023/09/28 05:24:26;;;;;;;11.32;8.90;;;18.90;90.50;;;;;;6120385;23;20143;-82
2023/09/28 05:26:52;;;;;;;12.23;8.85;;;18.90;90.50;;;;;;6120015;23;20152;-82
2023/09/28 05:29:18;;;;;;;9.82;8.07;;;18.90;90.60;;;;;;6120214;23;20202;-83
2023/09/28 05:31:44;;;;;;;9.93;8.55;;;18.90;90.60;;;;;;6122029;23;20140;-83
2023/09/28 05:34:10;;;;;;;10.48;8.48;;;18.90;90.60;;;;;;6097219;23;20140;-82
2023/09/28 05:36:36;;;;;;;10.23;8.13;;;18.80;90.60;;;;;;6121304;23;20609;-82
2023/09/28 05:39:03;;;;;;;9.75;7.82;;;18.90;90.60;;;;;;6121717;23;20137;-83
2023/09/28 05:41:28;;;;;;;10.80;8.18;;;18.80;90.30;;;;;;6096964;23;20147;-83
2023/09/28 05:43:54;;;;;;;8.88;7.50;;;18.90;89.80;;;;;;6121421;23;20136;-83
2023/09/28 05:46:20;;;;;;;9.40;7.93;;;18.90;89.20;;;;;;6121330;23;20152;-82
2023/09/28 05:48:45;;;;;;;9.13;7.88;;;18.90;88.60;;;;;;6121715;23;20175;-83
2023/09/28 05:51:11;;;;;;;10.00;8.02;;;18.80;88.30;;;;;;6128311;22;20349;-82
2023/09/28 05:53:44;;;;;;;9.38;7.82;;;18.80;88.10;;;;;;6102450;23;20500;-83
2023/09/28 05:56:14;;;;;;;10.00;7.65;;;18.80;88.00;;;;;;6128056;23;20182;-83
2023/09/28 05:58:39;;;;;;;9.32;7.20;;;18.80;87.90;;;;;;6126208;23;20693;-83
2023/09/28 06:01:07;;;;;;;9.23;7.85;;;18.60;87.90;;;;;;6126349;23;20196;-84
2023/09/28 06:03:35;;;;;;;8.60;7.05;;;18.70;88.10;;;;;;6103341;23;20152;-84
2023/09/28 06:06:12;;;;;;;8.95;7.63;;;18.60;88.00;;;;;;6102739;23;20147;-82
2023/09/28 06:08:39;;;;;;;10.20;7.25;;;18.60;88.10;;;;;;6103250;23;20140;-84
2023/09/28 06:11:04;;;;;;;8.73;7.38;;;18.60;88.20;;;;;;6102194;23;20151;-83
2023/09/28 06:13:31;;;;;;;8.75;7.70;;;18.60;88.30;;;;;;6101930;23;20158;-82
2023/09/28 06:15:56;;;;;;;8.65;7.30;;;18.60;87.90;;;;;;6126688;23;20164;-84
2023/09/28 06:18:22;;;;;;;9.07;7.10;;;18.60;87.90;;;;;;6101940;23;20147;-83
2023/09/28 06:20:48;;;;;;;8.57;7.40;;;18.60;87.60;;;;;;6152314;23;20136;-83
2023/09/28 06:23:14;;;;;;;7.97;7.07;;;18.60;87.50;;;;;;6126276;23;20135;-84
2023/09/28 06:25:41;;;;;;;7.47;6.50;;;18.60;87.30;;;;;;6102154;23;20205;-83
2023/09/28 06:28:08;;;;;;;7.70;6.90;;;18.70;86.60;;;;;;6135267;23;20170;-83
2023/09/28 06:30:34;;;;;;;7.13;6.40;;;18.70;86.30;;;;;;6128551;23;20136;-82
2023/09/28 06:33:00;;;;;;;8.10;6.75;;;18.80;85.40;;;;;;6158837;23;20162;-82
2023/09/28 06:35:26;;;;;;;7.22;6.38;;;18.80;86.00;;;;;;6128658;23;20140;-83
2023/09/28 06:37:52;;;;;;;8.48;6.68;;;18.80;86.00;;;;;;6127151;23;20138;-81
2023/09/28 06:40:18;;;;;;;8.07;6.80;;;18.90;85.90;;;;;;6152872;22;20458;-81
2023/09/28 06:42:44;;;;;;;7.82;6.75;;;18.90;85.80;;;;;;6126706;23;20155;-82
2023/09/28 06:45:11;;;;;;;7.78;6.65;;;18.90;85.80;;;;;;6102682;23;20147;-81
2023/09/28 06:47:37;;;;;;;8.05;6.63;;;18.90;85.80;;;;;;6102538;23;20156;-81
2023/09/28 06:50:04;;;;;;;8.07;6.97;;;18.80;85.80;;;;;;6126948;23;20147;-82
2023/09/28 06:52:32;;;;;;;7.88;6.53;;;18.90;86.10;;;;;;6152861;22;20610;-82
2023/09/28 06:54:58;;;;;;;7.68;6.88;;;18.90;85.90;;;;;;6153358;22;20200;-82
2023/09/28 06:57:24;;;;;;;7.00;6.28;;;18.90;86.00;;;;;;6103777;23;20179;-82
2023/09/28 06:59:50;;;;;;;8.05;6.82;;;18.90;86.10;;;;;;6128246;23;20578;-81
2023/09/28 07:02:16;;;;;;;7.32;6.53;;;18.90;86.10;;;;;;6093452;23;20157;-82
2023/09/28 07:04:42;;;;;;;8.05;7.22;;;19.00;85.90;;;;;;6094004;23;20145;-81
2023/09/28 07:07:10;;;;;;;7.63;6.82;;;18.90;86.00;;;;;;6070351;23;20620;-81
2023/09/28 07:09:36;;;;;;;6.70;6.05;;;18.90;85.80;;;;;;6093804;23;20211;-81
2023/09/28 07:12:02;;;;;;;7.57;6.65;;;18.90;85.60;;;;;;6043650;23;20585;-83
2023/09/28 07:14:28;;;;;;;6.93;6.20;;;19.00;85.50;;;;;;6020099;23;20157;-82
2023/09/28 07:16:54;;;;;;;7.80;6.95;;;19.00;85.40;;;;;;6067547;23;20185;-81
2023/09/28 07:22:57;;;;;;;7.50;6.63;;;19.00;85.40;;;;;;6013387;23;20249;-81
2023/09/28 07:25:31;;;;;;;7.07;6.38;;;19.00;85.30;;;;;;6014926;23;20221;-82
2023/09/28 07:28:03;;;;;;;7.30;6.57;;;19.00;85.60;;;;;;5997720;23;20180;-81
2023/09/28 07:30:30;;;;;;;6.82;6.13;;;19.00;85.30;;;;;;5943959;23;20159;-82
2023/09/28 07:32:57;;;;;;;7.22;6.38;;;19.00;85.50;;;;;;5998284;23;20165;-82
2023/09/28 07:35:22;;;;;;;7.93;7.13;;;19.10;85.60;;;;;;6016797;23;20166;-81
2023/09/28 07:37:48;;;;;;;8.60;6.65;;;19.00;85.50;;;;;;5994274;23;20595;-80
2023/09/28 07:40:17;;;;;;;8.15;6.95;;;19.00;85.70;;;;;;5992938;23;20229;-83
2023/09/28 07:42:44;;;;;;;7.90;7.05;;;19.00;85.80;;;;;;6039797;23;20134;-81
2023/09/28 07:45:14;;;;;;;9.07;6.60;;;19.00;86.00;;;;;;6016724;23;20139;-83
2023/09/28 07:47:43;;;;;;;7.25;6.32;;;19.00;86.00;;;;;;5970407;23;20154;-83
2023/09/28 07:50:14;;;;;;;7.65;6.60;;;18.90;86.10;;;;;;6016675;23;20240;-83
2023/09/28 07:52:41;;;;;;;7.70;6.90;;;18.90;86.30;;;;;;6063345;23;20206;-83
2023/09/28 07:55:10;;;;;;;7.95;6.30;;;18.90;86.50;;;;;;6012914;23;20158;-84
2023/09/28 07:57:39;;;;;;;7.72;6.40;;;18.90;86.70;;;;;;5967415;23;20201;-83
2023/09/28 08:00:06;;;;;;;7.43;6.50;;;18.80;87.00;;;;;;6063125;23;20356;-81
2023/09/28 08:02:34;;;;;;;8.10;7.03;;;18.80;87.20;;;;;;6128192;23;20135;-80
2023/09/28 08:05:01;;;;;;;7.75;6.95;;;18.80;87.40;;;;;;6053432;23;20238;-82
2023/09/28 08:07:30;;;;;;;8.35;7.32;;;18.80;87.60;;;;;;6129831;23;20135;-82
2023/09/28 08:09:56;;;;;;;7.72;6.18;;;18.70;87.80;;;;;;6130428;23;20156;-82
2023/09/28 08:12:22;;;;;;;8.48;6.90;;;18.80;88.10;;;;;;6106294;23;20510;-82
2023/09/28 08:14:48;;;;;;;7.30;6.55;;;18.80;88.30;;;;;;6131291;23;20623;-81
2023/09/28 08:17:14;;;;;;;8.13;6.68;;;18.70;88.30;;;;;;6132907;23;20163;-82
2023/09/28 08:19:40;;;;;;;8.55;7.10;;;18.80;88.80;;;;;;6128978;23;20135;-82
2023/09/28 08:22:06;;;;;;;8.30;7.22;;;18.80;88.50;;;;;;6103662;23;20193;-87
2023/09/28 08:24:33;;;;;;;7.28;6.45;;;18.80;88.70;;;;;;6104166;23;20147;-83
2023/09/28 08:26:58;;;;;;;7.78;6.97;;;18.80;88.80;;;;;;6127782;23;20159;-82
2023/09/28 08:29:25;;;;;;;8.45;7.20;;;18.90;89.00;;;;;;6105269;23;20270;-83
2023/09/28 08:31:51;;;;;;;8.98;7.60;;;18.80;88.80;;;;;;6080280;23;20205;-83
2023/09/28 08:34:16;;;;;;;7.85;6.82;;;18.80;88.90;;;;;;6080791;23;20151;-83
2023/09/28 08:36:42;;;;;;;7.32;6.63;;;18.90;89.10;;;;;;6130670;23;20167;-82
2023/09/28 08:39:10;;;;;;;7.85;6.72;;;18.80;89.30;;;;;;6127794;23;20535;-82
2023/09/28 08:41:44;;;;;;;8.27;7.07;;;18.80;89.40;;;;;;6151947;23;20211;-83
2023/09/28 08:44:10;;;;;;;8.57;6.93;;;18.80;89.50;;;;;;6104165;23;20128;-83
2023/09/28 08:46:39;;;;;;;7.60;6.80;;;18.80;89.60;;;;;;6102132;23;20578;-83
2023/09/28 08:49:06;;;;;;;8.13;7.32;;;18.70;89.70;;;;;;6104753;23;20135;-82
2023/09/28 08:51:32;;;;;;;8.75;7.43;;;18.80;89.80;;;;;;6097637;23;20195;-83
2023/09/28 08:53:59;;;;;;;8.70;7.35;;;18.80;89.80;;;;;;6122915;23;20149;-82
2023/09/28 08:56:25;;;;;;;8.23;7.05;;;18.80;89.90;;;;;;6098972;23;20172;-83
2023/09/28 08:58:52;;;;;;;7.97;7.03;;;18.90;90.00;;;;;;6125054;23;20195;-83
2023/09/28 09:01:21;;;;;;;7.80;6.72;;;18.80;89.80;;;;;;6126717;23;20140;-83
2023/09/28 09:03:50;;;;;;;8.75;7.13;;;18.80;89.80;;;;;;6101635;23;20152;-82
2023/09/28 09:06:16;;;;;;;7.78;6.40;;;18.80;90.00;;;;;;6229022;23;20160;-83
2023/09/28 09:08:48;;;;;;;8.40;6.80;;;18.90;90.10;;;;;;6101726;23;20160;-82
2023/09/28 09:11:16;;;;;;;7.57;6.78;;;18.90;90.10;;;;;;6223749;23;20164;-82
2023/09/28 09:13:50;;;;;;;7.47;6.65;;;18.90;90.00;;;;;;6098666;23;20160;-83
2023/09/28 09:16:16;;;;;;;8.07;7.05;;;18.90;89.90;;;;;;6074741;23;20211;-83
2023/09/28 09:18:44;;;;;;;7.72;6.75;;;18.90;89.90;;;;;;6123895;23;20136;-83
2023/09/28 09:21:10;;;;;;;7.18;6.38;;;19.00;89.60;;;;;;6097329;23;20239;-82
2023/09/28 09:23:37;;;;;;;8.55;6.90;;;19.00;89.70;;;;;;6074357;23;20179;-82
2023/09/28 09:26:05;;;;;;;7.82;6.78;;;19.10;89.50;;;;;;6073680;23;20156;-82
2023/09/28 09:28:32;;;;;;;7.55;6.80;;;19.00;89.40;;;;;;6174746;23;20603;-83
2023/09/28 09:31:00;;;;;;;8.10;7.03;;;19.10;89.40;;;;;;6122264;23;20194;-82
2023/09/28 09:33:26;;;;;;;8.40;7.10;;;19.10;89.40;;;;;;6049475;23;20247;-83
2023/09/28 09:35:53;;;;;;;8.32;6.80;;;19.10;89.20;;;;;;6048972;23;20176;-83
2023/09/28 09:38:30;;;;;;;8.32;7.22;;;19.10;89.50;;;;;;6121919;23;20190;-82
2023/09/28 09:40:59;;;;;;;8.30;6.65;;;19.10;89.40;;;;;;6224390;23;20344;-81
2023/09/28 09:43:28;;;;;;;7.65;6.85;;;19.10;89.50;;;;;;6199409;23;20652;-81
2023/09/28 09:45:56;;;;;;;7.45;6.40;;;19.10;89.90;;;;;;6075275;23;20238;-82
2023/09/28 09:48:21;;;;;;;7.78;6.55;;;19.10;89.70;;;;;;6122909;23;20210;-82
2023/09/28 09:50:47;;;;;;;8.00;6.82;;;19.10;89.90;;;;;;6124712;22;20192;-82
2023/09/28 09:53:13;;;;;;;7.95;7.15;;;19.10;89.90;;;;;;6128367;23;20164;-82
2023/09/28 09:55:41;;;;;;;7.53;6.80;;;19.10;90.00;;;;;;6154827;22;20189;-82
2023/09/28 09:58:08;;;;;;;7.57;6.78;;;19.10;89.90;;;;;;6127916;23;20479;-83
2023/09/28 10:00:33;;;;;;;7.90;7.10;;;19.20;90.00;;;;;;6104877;23;20151;-81
2023/09/28 10:03:00;;;;;;;8.30;7.18;;;19.00;89.90;;;;;;6082528;23;20486;-82
2023/09/28 10:05:36;;;;;;;8.85;7.68;;;19.10;90.00;;;;;;6105612;23;20167;-82
2023/09/28 10:08:05;;;;;;;8.32;7.28;;;19.10;90.30;;;;;;6080122;23;20196;-81
2023/09/28 10:10:31;;;;;;;8.38;7.50;;;19.10;90.20;;;;;;6127866;23;20583;-82
2023/09/28 10:12:58;;;;;;;8.55;7.40;;;19.10;90.30;;;;;;6153341;22;20214;-82
2023/09/28 10:15:25;;;;;;;8.10;6.85;;;19.10;90.30;;;;;;6152956;23;20135;-81
2023/09/28 10:17:51;;;;;;;8.75;7.80;;;19.10;90.20;;;;;;6153390;22;20189;-82
2023/09/28 10:20:18;;;;;;;8.55;7.68;;;19.10;90.30;;;;;;6102916;23;20172;-82
2023/09/28 10:22:46;;;;;;;8.00;6.75;;;19.20;90.20;;;;;;6103144;23;20152;-81
2023/09/28 10:25:13;;;;;;;8.18;7.38;;;19.20;90.30;;;;;;6103329;23;20132;-80
2023/09/28 10:27:43;;;;;;;8.65;7.70;;;19.20;90.30;;;;;;6103086;23;20632;-81
2023/09/28 10:30:18;;;;;;;8.23;7.22;;;19.20;90.40;;;;;;6153124;23;20163;-82
2023/09/28 10:32:44;;;;;;;8.90;7.50;;;19.20;90.40;;;;;;6103133;23;20537;-83
2023/09/28 10:35:29;;;;;;;9.18;8.05;;;19.20;90.40;;;;;;6103196;23;20136;-81
2023/09/28 10:38:24;;;;;;;8.75;7.68;;;19.20;90.40;;;;;;6127798;23;20132;-81
2023/09/28 10:41:02;;;;;;;7.90;7.10;;;19.20;90.50;;;;;;6152658;23;20559;-82
2023/09/28 10:43:29;;;;;;;8.55;7.30;;;19.20;90.60;;;;;;6127532;23;20178;-80
2023/09/28 10:45:55;;;;;;;9.88;7.57;;;19.20;90.50;;;;;;6080476;23;20159;-80
2023/09/28 10:48:22;;;;;;;8.27;7.47;;;19.20;90.60;;;;;;6126007;23;20541;-80
2023/09/28 10:50:48;;;;;;;9.77;7.80;;;19.20;90.50;;;;;;6101611;22;20610;-83
2023/09/28 10:53:14;;;;;;;9.07;7.82;;;19.20;90.50;;;;;;6125519;23;20187;-82
2023/09/28 10:55:41;;;;;;;9.05;7.47;;;19.30;90.50;;;;;;6100387;23;20139;-83
2023/09/28 10:58:07;;;;;;;10.35;8.50;;;19.20;90.50;;;;;;6101919;23;20715;-85
2023/09/28 11:00:34;;;;;;;8.77;7.88;;;19.20;90.60;;;;;;6101575;23;20151;-82
2023/09/28 11:03:00;;;;;;;9.98;8.38;;;19.20;90.60;;;;;;6151946;23;20132;-81
2023/09/28 11:05:26;;;;;;;9.93;8.50;;;19.20;90.70;;;;;;6151974;22;20136;-82
2023/09/28 11:07:52;;;;;;;8.10;7.30;;;19.20;90.60;;;;;;6124602;23;20147;-82
2023/09/28 11:10:23;;;;;;;9.57;7.60;;;19.20;90.80;;;;;;6150372;22;20277;-83
2023/09/28 11:12:49;;;;;;;8.68;7.68;;;19.20;90.70;;;;;;6151529;22;20158;-81
2023/09/28 11:15:15;;;;;;;9.27;8.10;;;19.30;90.60;;;;;;6150748;22;20499;-82
2023/09/28 11:17:41;;;;;;;9.05;8.10;;;19.30;90.40;;;;;;6124504;23;20169;-82
2023/09/28 11:20:11;;;;;;;9.73;7.80;;;19.30;90.40;;;;;;6100550;23;20250;-83
2023/09/28 11:22:38;;;;;;;9.60;8.23;;;19.30;90.40;;;;;;6101110;23;20473;-83
2023/09/28 11:25:05;;;;;;;9.20;7.88;;;19.30;90.50;;;;;;6103047;23;20189;-84
2023/09/28 11:27:31;;;;;;;9.82;8.50;;;19.30;90.40;;;;;;6103427;23;20618;-84
2023/09/28 11:29:57;;;;;;;8.38;7.50;;;19.40;90.40;;;;;;6102672;23;20221;-83
2023/09/28 11:32:23;;;;;;;9.43;8.10;;;19.40;90.40;;;;;;6105217;23;20560;-84
2023/09/28 11:34:48;;;;;;;9.52;8.13;;;19.40;90.40;;;;;;6155696;23;20147;-83
2023/09/28 11:37:16;;;;;;;9.60;8.52;;;19.40;90.30;;;;;;6155607;22;20170;-83
2023/09/28 11:39:42;;;;;;;9.70;7.88;;;19.40;90.40;;;;;;6105922;23;20182;-82
2023/09/28 11:42:08;;;;;;;10.48;8.80;;;19.40;90.50;;;;;;6102775;23;20147;-83
2023/09/28 11:44:37;;;;;;;9.43;8.43;;;19.40;90.60;;;;;;6153575;23;20551;-84
2023/09/28 11:47:11;;;;;;;8.82;7.80;;;19.30;90.60;;;;;;6177137;23;20163;-83
2023/09/28 11:49:43;;;;;;;8.77;7.72;;;19.40;90.70;;;;;;6055875;23;20166;-82
2023/09/28 11:52:10;;;;;;;10.02;8.73;;;19.40;90.50;;;;;;6065342;23;20204;-83
2023/09/28 11:54:40;;;;;;;9.88;8.23;;;19.50;90.40;;;;;;6094259;23;20148;-83
2023/09/28 11:57:29;;;;;;;8.57;7.68;;;19.40;90.50;;;;;;6090914;23;20299;-83
2023/09/28 12:00:02;;;;;;;10.57;8.32;;;19.40;90.50;;;;;;6160956;23;20157;-84
2023/09/28 12:03:07;;;;;;;8.50;7.65;;;19.50;90.40;;;;;;6071981;23;20148;-83
2023/09/28 12:05:35;;;;;;;8.93;8.02;;;19.50;90.50;;;;;;6050372;23;20160;-83
2023/09/28 12:08:01;;;;;;;9.77;8.02;;;19.50;90.50;;;;;;6195392;23;20244;-85
2023/09/28 12:10:28;;;;;;;10.18;8.27;;;19.40;90.60;;;;;;6097759;23;20137;-83
2023/09/28 12:12:57;;;;;;;10.48;7.63;;;19.50;90.70;;;;;;6103803;23;20161;-83
2023/09/28 12:15:23;;;;;;;10.10;8.05;;;19.40;90.60;;;;;;6078330;23;20186;-83
2023/09/28 12:17:50;;;;;;;8.43;7.50;;;19.30;90.60;;;;;;6103572;23;20165;-83
2023/09/28 12:20:17;;;;;;;11.23;8.50;;;19.40;90.70;;;;;;6100885;23;20203;-83
2023/09/28 12:22:48;;;;;;;8.45;7.55;;;19.40;90.70;;;;;;6078749;23;20206;-82
2023/09/28 12:25:14;;;;;;;9.45;8.02;;;19.40;90.80;;;;;;6102559;23;20148;-81
2023/09/28 12:27:41;;;;;;;10.15;7.50;;;19.40;90.80;;;;;;6101491;23;20221;-83
2023/09/28 12:30:07;;;;;;;9.77;8.30;;;19.40;90.80;;;;;;6171611;23;20167;-82
2023/09/28 12:32:33;;;;;;;8.00;7.20;;;19.40;90.80;;;;;;6046200;23;20157;-81
2023/09/28 12:35:01;;;;;;;9.57;7.78;;;19.40;90.80;;;;;;6045071;23;20237;-85
2023/09/28 12:37:27;;;;;;;9.20;8.20;;;19.40;90.80;;;;;;6046099;23;20173;-81
2023/09/28 12:39:53;;;;;;;10.13;8.05;;;19.40;90.90;;;;;;6023100;23;20589;-81
2023/09/28 12:42:24;;;;;;;9.40;8.35;;;19.40;90.80;;;;;;6027568;23;20210;-83
2023/09/28 12:44:52;;;;;;;9.18;8.27;;;19.40;90.90;;;;;;6031526;23;20153;-82
2023/09/28 12:47:28;;;;;;;9.07;8.18;;;19.50;91.00;;;;;;6027881;23;20154;-81